METAR stanice u blizini

 

LYBE - Beograd / Surčin, Srbija
Ažurirano: 20/05/2019 14:30
Vedro
Vedro
 Pravac vetra Z
Vetar: Z 13 km/h
Temperatura: 23°C
Tačka rose: 9°C
Vlažnost: 41%
Pritisak: 1007 hPa
Pregled: Vedro
Vidljivost: greater than 10 km
2019/05/20 12:30 LYBE 201230Z 28007KT 250V320 CAVOK 23/09 Q1007 NOSIG
LYBT - Beograd / Batajnica, Srbija
Ažurirano: 20/05/2019 14:30
Few Clouds
Few Clouds
 Pravac vetra varies
Vetar: varies 11 km/h
Temperatura: 23°C
Tačka rose: 9°C
Vlažnost: 41%
Pritisak: 1007 hPa
Oblaci: Few Clouds
Vidljivost: 10 km
Cloud details: Few Clouds 1219 m
2019/05/20 12:30 LYBT 201230Z VRB06KT 9999 FEW040 23/09 Q1007 NOSIG
LYVR - Vršac, Srbija
Ažurirano: 20/05/2019 14:30
Light thunderstorm, Padavine, Delimično oblačno
Light thunderstorm, Padavine, Delimično oblačno
 Pravac vetra Z
Vetar: Z 13 km/h
Temperatura: 18°C
Tačka rose: 13°C
Vlažnost: 73%
Pritisak: 1008 hPa
Pregled: Light thunderstorm, Padavine
Oblaci: Partly Cloudy
Vidljivost: 7 km
Cloud details: Partly Cloudy 914 m
Partly Cloudy 1219 m
2019/05/20 12:30 LYVR 201230Z 26007KT 7000 -TSRA SCT030CB SCT040 18/13 Q1008 BCMG NSW
 
LYKV - Lađevci, Srbija
Ažurirano: 20/05/2019 14:30
Mostly Cloudy
Mostly Cloudy
 Pravac vetra JZ
Vetar: JZ 13 km/h
Temperatura: 20°C
Tačka rose: 9°C
Vlažnost: 49%
Pritisak: 1008 hPa
Oblaci: Mostly Cloudy
Vidljivost: 10 km
Cloud details: Mostly Cloudy 1219 m
2019/05/20 12:30 LYKV 201230Z 23007KT 180V280 9999 BKN040 20/09 Q1008 NOSIG
LYNI - Niš, Srbija
Ažurirano: 20/05/2019 14:30
Light thunderstorm, Padavine, Pretežno oblačno
Light thunderstorm, Padavine, Pretežno oblačno
 Pravac vetra J
Vetar: J 11 km/h
Temperatura: 16°C
Tačka rose: 12°C
Vlažnost: 77%
Pritisak: 1010 hPa
Pregled: Light thunderstorm, Padavine
Oblaci: Mostly Cloudy
Vidljivost: 10 km
Cloud details: Few Clouds 1006 m
Mostly Cloudy 1219 m
2019/05/20 12:30 LYNI 201230Z 17006KT 120V230 9999 -TSRA FEW033CB BKN040 16/12 Q1010 NOSIG
BKPR - Priština, Srbija
Ažurirano: 20/05/2019 14:30
Mostly Cloudy
Mostly Cloudy
 Pravac vetra JZ
Vetar: JZ 37 km/h
Temperatura: 14°C
Tačka rose: 6°C
Vlažnost: 59%
Pritisak: 1011 hPa
Oblaci: Mostly Cloudy
Vidljivost: 10 km
Cloud details: Few Clouds 610 m
Few Clouds 914 m
Mostly Cloudy 1524 m
2019/05/20 12:30 BKPR 201230Z 23020KT 9999 FEW020 FEW030CB BKN050 14/06 Q1011 NOSIG
 
LHPP - Pecs / Pogany, Hungary
Ažurirano: 20/05/2019 14:15
Thunderstorm hail, Delimično oblačno
Thunderstorm hail, Delimično oblačno
 Pravac vetra JZ
Vetar: JZ 20 km/h, Maks.: 50 km/h
Temperatura: 15°C
Tačka rose: 11°C
Vlažnost: 77%
Pritisak: 1007 hPa
Pregled: Thunderstorm Hail
Oblaci: Partly Cloudy
Vidljivost: 10 km
Cloud details: Few Clouds 610 m
Partly Cloudy 701 m
2019/05/20 12:15 LHPP 201215Z 22011G27KT 9999 TSGR FEW020CB SCT023 15/11 Q1007
LHUD - Szeged, Hungary
Ažurirano: 20/05/2019 13:45
Partly Cloudy
Partly Cloudy
 Pravac vetra J
Vetar: J 19 km/h
Temperatura: 22°C
Tačka rose: 13°C
Vlažnost: 57%
Pritisak: 1007 hPa
Oblaci: Partly Cloudy
Vidljivost: 10 km
Cloud details: Few Clouds 1219 m
Partly Cloudy 1402 m
2019/05/20 11:45 LHUD 201145Z 18010KT 9999 FEW040CB SCT046TCU 22/13 Q1007
LRTR - Timisoara, Romania
Ažurirano: 20/05/2019 14:30
Partly Cloudy
Partly Cloudy
 Pravac vetra JZ
Vetar: JZ 9 km/h
Temperatura: 22°C
Tačka rose: 13°C
Vlažnost: 57%
Pritisak: 1007 hPa
Oblaci: Partly Cloudy
Vidljivost: 10 km
Cloud details: Few Clouds 1067 m
Partly Cloudy 1158 m
2019/05/20 12:30 LRTR 201230Z 22005KT 170V260 9999 FEW035CB SCT038 22/13 Q1007
 
LRCV - Craiova, Romania
Ažurirano: 20/05/2019 14:30
Vedro
Vedro
 Pravac vetra ZJZ
Vetar: ZJZ 26 km/h
Temperatura: 19°C
Tačka rose: 12°C
Vlažnost: 64%
Pritisak: 1008 hPa
Pregled: Vedro
Vidljivost: greater than 10 km
2019/05/20 12:30 LRCV 201230Z 25014KT CAVOK 19/12 Q1008
LBSF - Sofia, Bulgaria
Ažurirano: 20/05/2019 14:30
Partly Cloudy
Partly Cloudy
 Pravac vetra SZ
Vetar: SZ 17 km/h
Temperatura: 18°C
Tačka rose: 10°C
Vlažnost: 60%
Pritisak: 1009 hPa
Oblaci: Partly Cloudy
Vidljivost: 10 km
Cloud details: Partly Cloudy 1920 m
2019/05/20 12:30 LBSF 201230Z 31009KT 9999 SCT063 18/10 Q1009 NOSIG
LWSK - Skoplje, Makedonija
Ažurirano: 20/05/2019 14:00
Mostly Cloudy
Mostly Cloudy
 Pravac vetra varies
Vetar: varies 2 km/h
Temperatura: 18°C
Tačka rose: 15°C
Vlažnost: 83%
Pritisak: 1011 hPa
Oblaci: Mostly Cloudy
Vidljivost: 10 km
Cloud details: Few Clouds 1524 m
Mostly Cloudy 2438 m
2019/05/20 12:00 LWSK 201200Z VRB01KT 9999 FEW050 BKN080 18/15 Q1011 NOSIG
 
LYPG - Podgorica, Crna Gora
Ažurirano: 20/05/2019 14:30
Partly Cloudy
Partly Cloudy
 Pravac vetra JJI
Vetar: JJI 20 km/h
Temperatura: 18°C
Tačka rose: 12°C
Vlažnost: 68%
Pritisak: 1012 hPa
Oblaci: Partly Cloudy
Vidljivost: 10 km
Cloud details: Partly Cloudy 610 m
Partly Cloudy 1219 m
2019/05/20 12:30 LYPG 201230Z 15011KT 9999 SCT020 SCT040 18/12 Q1012 NOSIG
LQSA - Sarajevo, Bosna i Hercegovina
Ažurirano: 20/05/2019 14:30
Mostly Cloudy
Mostly Cloudy
 Pravac vetra SSZ
Vetar: SSZ 9 km/h
Temperatura: 16°C
Tačka rose: 7°C
Vlažnost: 55%
Pritisak: 1010 hPa
Oblaci: Mostly Cloudy
Vidljivost: 10 km
Cloud details: Few Clouds 1067 m
Mostly Cloudy 1524 m
2019/05/20 12:30 LQSA 201230Z 33005KT 290V020 9999 FEW035 BKN050 16/07 Q1010 NOSIG
LDOS - Osijek, Hrvatksa
Ažurirano: 20/05/2019 14:30
Few Clouds
Few Clouds
 Pravac vetra JZ
Vetar: JZ 24 km/h
Temperatura: 22°C
Tačka rose: 10°C
Vlažnost: 47%
Pritisak: 1006 hPa
Oblaci: Few Clouds
Vidljivost: 10 km
Cloud details: Few Clouds 1128 m
2019/05/20 12:30 LDOS 201230Z 22013KT 9999 FEW037 22/10 Q1006